createdAt,value
2018-08-20T00:00:20.917Z,15.47
2018-08-20T00:02:48.048Z,15.13
2018-08-20T00:05:15.200Z,15.10
2018-08-20T00:07:42.305Z,16.57
2018-08-20T00:10:10.048Z,15.57
2018-08-20T00:12:37.324Z,14.53
2018-08-20T00:15:04.576Z,14.43
2018-08-20T00:17:31.684Z,14.57
2018-08-20T00:19:58.792Z,13.07
2018-08-20T00:22:25.904Z,12.10
2018-08-20T00:25:06.336Z,11.97
2018-08-20T00:27:33.489Z,10.83
2018-08-20T00:30:00.610Z,11.50
2018-08-20T00:32:27.726Z,11.10
2018-08-20T00:34:54.889Z,11.73
2018-08-20T00:37:21.997Z,12.60
2018-08-20T00:39:49.096Z,12.30
2018-08-20T00:42:16.275Z,12.00
2018-08-20T00:44:43.374Z,12.00
2018-08-20T00:47:10.468Z,11.97
2018-08-20T00:49:37.583Z,12.50
2018-08-20T00:52:04.703Z,11.87
2018-08-20T00:54:31.811Z,10.43
2018-08-20T00:56:58.921Z,10.90
2018-08-20T00:59:26.028Z,10.70
2018-08-20T01:01:53.120Z,10.50
2018-08-20T01:04:20.233Z,10.20
2018-08-20T01:06:47.369Z,9.90
2018-08-20T01:09:14.459Z,9.27
2018-08-20T01:11:41.569Z,9.23
2018-08-20T01:14:08.764Z,8.93
2018-08-20T01:16:35.868Z,8.67
2018-08-20T01:19:02.989Z,8.70
2018-08-20T01:21:30.104Z,7.83
2018-08-20T01:23:57.220Z,8.10
2018-08-20T01:26:24.332Z,7.97
2018-08-20T01:28:51.436Z,7.60
2018-08-20T01:31:18.592Z,8.57
2018-08-20T01:33:45.684Z,7.53
2018-08-20T01:36:12.805Z,7.30
2018-08-20T01:38:39.909Z,7.53
2018-08-20T01:41:07.004Z,7.53
2018-08-20T01:43:34.100Z,7.10
2018-08-20T01:46:01.239Z,7.33
2018-08-20T01:48:28.351Z,7.80
2018-08-20T01:50:55.472Z,6.77
2018-08-20T01:53:22.571Z,6.73
2018-08-20T01:55:49.684Z,7.27
2018-08-20T01:58:16.820Z,7.03
2018-08-20T02:00:43.984Z,6.67
2018-08-20T02:03:11.100Z,6.50
2018-08-20T02:05:38.244Z,7.20
2018-08-20T02:08:05.380Z,6.67
2018-08-20T02:10:32.503Z,6.97
2018-08-20T02:12:59.596Z,6.67
2018-08-20T02:15:26.732Z,6.50
2018-08-20T02:17:54.168Z,6.90
2018-08-20T02:20:21.301Z,6.87
2018-08-20T02:22:48.415Z,6.70
2018-08-20T02:25:15.522Z,6.53
2018-08-20T02:27:42.644Z,6.93
2018-08-20T02:30:12.447Z,6.63
2018-08-20T02:32:39.681Z,6.63
2018-08-20T02:35:07.404Z,6.27
2018-08-20T02:37:41.041Z,6.63
2018-08-20T02:40:09.076Z,6.60
2018-08-20T02:42:36.256Z,6.67
2018-08-20T02:45:04.809Z,5.53
2018-08-20T02:47:31.898Z,5.40
2018-08-20T02:49:58.988Z,5.80
2018-08-20T02:52:26.138Z,5.87
2018-08-20T02:54:53.253Z,6.20
2018-08-20T02:57:20.368Z,5.53
2018-08-20T02:59:47.536Z,5.83
2018-08-20T03:02:14.700Z,5.23
2018-08-20T03:04:41.805Z,5.73
2018-08-20T03:07:08.924Z,5.90
2018-08-20T03:09:36.044Z,5.73
2018-08-20T03:12:03.204Z,6.00
2018-08-20T03:14:30.292Z,5.87
2018-08-20T03:16:57.441Z,6.03
2018-08-20T03:19:24.548Z,6.47
2018-08-20T03:21:51.657Z,6.17
2018-08-20T03:24:18.757Z,6.33
2018-08-20T03:26:45.865Z,6.27
2018-08-20T03:29:12.993Z,6.70
2018-08-20T03:31:40.131Z,6.70
2018-08-20T03:34:07.217Z,6.90
2018-08-20T03:36:34.337Z,6.80
2018-08-20T03:39:01.460Z,7.20
2018-08-20T03:41:28.664Z,7.40
2018-08-20T03:43:55.753Z,7.03
2018-08-20T03:46:22.859Z,6.97
2018-08-20T03:48:49.984Z,7.10
2018-08-20T03:51:17.106Z,7.00
2018-08-20T03:53:44.245Z,6.93
2018-08-20T03:56:11.381Z,7.13
2018-08-20T03:58:38.492Z,7.33
2018-08-20T04:01:05.616Z,7.40
2018-08-20T04:03:32.696Z,7.43
2018-08-20T04:05:59.791Z,8.37
2018-08-20T04:08:26.888Z,8.87
2018-08-20T04:10:54.012Z,8.33
2018-08-20T04:13:21.152Z,8.73
2018-08-20T04:15:48.235Z,10.57
2018-08-20T04:18:15.335Z,9.87
2018-08-20T04:20:42.441Z,10.70
2018-08-20T04:23:09.533Z,10.60
2018-08-20T04:25:36.630Z,9.70
2018-08-20T04:28:03.789Z,9.87
2018-08-20T04:30:30.916Z,11.37
2018-08-20T04:32:58.024Z,10.93
2018-08-20T04:35:25.137Z,11.23
2018-08-20T04:37:52.244Z,12.53
2018-08-20T04:40:19.371Z,13.30
2018-08-20T04:42:46.496Z,13.57
2018-08-20T04:45:13.648Z,12.90
2018-08-20T04:47:40.742Z,13.30
2018-08-20T04:50:09.305Z,13.93
2018-08-20T04:52:36.706Z,14.00
2018-08-20T04:55:03.805Z,13.73
2018-08-20T04:57:30.903Z,15.03
2018-08-20T04:59:58.006Z,15.20
2018-08-20T05:02:25.117Z,15.80
2018-08-20T05:04:52.245Z,15.80
2018-08-20T05:07:19.341Z,16.40
2018-08-20T05:09:46.460Z,15.70
2018-08-20T05:12:13.554Z,16.43
2018-08-20T05:14:40.659Z,18.50
2018-08-20T05:17:07.781Z,18.07
2018-08-20T05:19:34.912Z,17.70
2018-08-20T05:22:02.052Z,20.43
2018-08-20T05:24:29.144Z,18.53
2018-08-20T05:26:56.272Z,21.37
2018-08-20T05:29:23.460Z,19.03
2018-08-20T05:31:50.529Z,21.30
2018-08-20T05:34:17.648Z,22.37
2018-08-20T05:36:44.776Z,23.57
2018-08-20T05:39:11.931Z,24.87
2018-08-20T05:41:39.034Z,24.40
2018-08-20T05:44:06.204Z,22.97
2018-08-20T05:46:33.377Z,23.50
2018-08-20T05:49:00.488Z,24.87
2018-08-20T05:51:27.656Z,25.47
2018-08-20T05:53:54.752Z,25.23
2018-08-20T05:56:21.848Z,26.50
2018-08-20T05:58:48.964Z,25.70
2018-08-20T06:01:16.132Z,24.70
2018-08-20T06:03:43.265Z,25.33
2018-08-20T06:06:10.363Z,25.80
2018-08-20T06:08:37.465Z,26.70
2018-08-20T06:11:04.604Z,25.77
2018-08-20T06:13:31.724Z,28.90
2018-08-20T06:15:58.848Z,27.57
2018-08-20T06:18:25.956Z,26.77
2018-08-20T06:20:53.099Z,28.03
2018-08-20T06:23:20.224Z,27.30
2018-08-20T06:25:47.385Z,28.77
2018-08-20T06:28:14.516Z,28.17
2018-08-20T06:30:41.692Z,29.97
2018-08-20T06:33:08.824Z,30.53
2018-08-20T06:35:35.947Z,31.13
2018-08-20T06:38:03.133Z,30.20
2018-08-20T06:40:30.244Z,30.80
2018-08-20T06:42:57.356Z,30.10
2018-08-20T06:45:24.480Z,32.73
2018-08-20T06:47:51.599Z,31.13
2018-08-20T06:50:18.796Z,33.30
2018-08-20T06:52:45.937Z,33.57
2018-08-20T06:55:14.388Z,34.53
2018-08-20T06:57:42.453Z,35.10
2018-08-20T07:00:10.732Z,34.43
2018-08-20T07:02:38.391Z,35.73
2018-08-20T07:05:06.256Z,33.67
2018-08-20T07:07:33.416Z,35.03
2018-08-20T07:10:00.529Z,34.93
2018-08-20T07:12:27.681Z,36.03
2018-08-20T07:14:54.795Z,35.10
2018-08-20T07:17:21.903Z,36.03
2018-08-20T07:19:49.004Z,36.17
2018-08-20T07:22:16.128Z,36.97
2018-08-20T07:24:43.265Z,36.83
2018-08-20T07:27:10.374Z,35.47
2018-08-20T07:29:38.950Z,34.53
2018-08-20T07:32:08.641Z,35.87
2018-08-20T07:34:36.580Z,36.10
2018-08-20T07:37:04.305Z,36.33
2018-08-20T07:39:31.415Z,37.50
2018-08-20T07:41:58.504Z,35.03
2018-08-20T07:44:25.628Z,35.83
2018-08-20T07:46:52.729Z,34.93
2018-08-20T07:49:19.845Z,34.40
2018-08-20T07:51:48.389Z,37.73
2018-08-20T07:54:15.828Z,34.93
2018-08-20T07:56:42.953Z,36.60
2018-08-20T07:59:10.152Z,36.90
2018-08-20T08:01:37.289Z,36.00
2018-08-20T08:04:04.425Z,36.53
2018-08-20T08:06:31.589Z,37.90
2018-08-20T08:08:58.737Z,35.10
2018-08-20T08:11:25.878Z,34.67
2018-08-20T08:13:53.005Z,34.83
2018-08-20T08:16:20.217Z,35.30
2018-08-20T08:18:47.290Z,33.57
2018-08-20T08:21:14.480Z,34.60
2018-08-20T08:23:41.609Z,34.70
2018-08-20T08:26:08.729Z,34.73
2018-08-20T08:28:35.852Z,34.03
2018-08-20T08:31:02.984Z,32.77
2018-08-20T08:33:30.104Z,34.30
2018-08-20T08:35:57.212Z,33.00
2018-08-20T08:38:24.349Z,32.93
2018-08-20T08:40:51.496Z,33.00
2018-08-20T08:43:18.597Z,32.77
2018-08-20T08:45:45.772Z,34.70
2018-08-20T08:48:13.021Z,33.43
2018-08-20T08:50:40.224Z,33.80
2018-08-20T08:53:07.365Z,33.23
2018-08-20T08:55:34.484Z,32.97
2018-08-20T08:58:01.609Z,32.23
2018-08-20T09:00:28.758Z,32.40
2018-08-20T09:02:55.840Z,33.70
2018-08-20T09:05:22.970Z,31.53
2018-08-20T09:07:50.096Z,33.37
2018-08-20T09:10:17.249Z,32.47
2018-08-20T09:12:44.424Z,33.47
2018-08-20T09:15:14.641Z,31.20
2018-08-20T09:17:42.012Z,32.23
2018-08-20T09:20:11.325Z,31.87
2018-08-20T09:22:38.594Z,31.83
2018-08-20T09:25:06.652Z,32.70
2018-08-20T09:27:33.750Z,32.23
2018-08-20T09:30:00.888Z,31.57
2018-08-20T09:32:28.025Z,32.27
2018-08-20T09:34:55.125Z,30.63
2018-08-20T09:37:22.228Z,32.23
2018-08-20T09:39:49.326Z,29.93
2018-08-20T09:42:16.432Z,33.07
2018-08-20T09:44:43.620Z,30.60
2018-08-20T09:47:11.074Z,31.20
2018-08-20T09:49:38.217Z,31.00
2018-08-20T09:52:05.348Z,30.63
2018-08-20T09:54:32.444Z,29.17
2018-08-20T09:56:59.576Z,27.03
2018-08-20T09:59:26.677Z,26.20
2018-08-20T10:01:53.788Z,25.80
2018-08-20T10:04:20.911Z,23.93
2018-08-20T10:06:48.036Z,24.00
2018-08-20T10:09:15.156Z,23.97
2018-08-20T10:11:42.262Z,24.00
2018-08-20T10:14:09.376Z,24.50
2018-08-20T10:16:36.503Z,23.83
2018-08-20T10:19:03.660Z,21.27
2018-08-20T10:21:30.824Z,19.03
2018-08-20T10:23:57.920Z,18.60
2018-08-20T10:26:25.093Z,17.50
2018-08-20T10:28:52.211Z,16.40
2018-08-20T10:31:19.352Z,14.10
2018-08-20T10:33:46.465Z,12.53
2018-08-20T10:36:13.608Z,11.37
2018-08-20T10:38:40.713Z,11.97
2018-08-20T10:41:07.886Z,11.50
2018-08-20T10:43:35.013Z,12.23
2018-08-20T10:46:07.789Z,11.03
2018-08-20T10:48:34.889Z,10.97
2018-08-20T10:51:02.033Z,9.83
2018-08-20T10:53:29.152Z,8.73
2018-08-20T10:55:56.280Z,9.73
2018-08-20T10:58:23.414Z,8.27
2018-08-20T11:00:50.540Z,9.37
2018-08-20T11:03:17.672Z,10.03
2018-08-20T11:05:44.793Z,11.37
2018-08-20T11:08:11.896Z,10.27
2018-08-20T11:10:39.102Z,9.40
2018-08-20T11:13:06.209Z,9.40
2018-08-20T11:15:33.314Z,9.20
2018-08-20T11:18:00.453Z,9.07
2018-08-20T11:20:27.576Z,8.87
2018-08-20T11:22:54.761Z,8.73
2018-08-20T11:25:21.921Z,8.70
2018-08-20T11:27:49.055Z,9.53
2018-08-20T11:30:16.487Z,9.37
2018-08-20T11:32:43.606Z,8.80
2018-08-20T11:35:11.468Z,8.20
2018-08-20T11:37:38.629Z,7.80
2018-08-20T11:40:06.481Z,8.40
2018-08-20T11:42:33.586Z,8.43
2018-08-20T11:45:00.708Z,9.50
2018-08-20T11:47:27.853Z,9.60
2018-08-20T11:49:54.997Z,9.33
2018-08-20T11:52:22.105Z,9.10
2018-08-20T11:54:49.492Z,8.20
2018-08-20T11:57:16.616Z,8.20
2018-08-20T11:59:43.738Z,8.00
2018-08-20T12:02:10.899Z,8.37
2018-08-20T12:04:38.009Z,7.80
2018-08-20T12:07:05.587Z,8.73
2018-08-20T12:09:32.611Z,8.20
2018-08-20T12:11:59.752Z,7.03
2018-08-20T12:14:26.876Z,6.73
2018-08-20T12:16:54.081Z,7.50
2018-08-20T12:19:21.178Z,7.37
2018-08-20T12:21:48.313Z,7.30
2018-08-20T12:24:15.437Z,7.43
2018-08-20T12:26:42.568Z,7.13
2018-08-20T12:29:09.663Z,6.67
2018-08-20T12:31:36.776Z,6.83
2018-08-20T12:34:03.889Z,6.80
2018-08-20T12:36:31.014Z,7.37
2018-08-20T12:38:58.132Z,7.80
2018-08-20T12:41:25.252Z,7.47
2018-08-20T12:43:52.449Z,7.47
2018-08-20T12:46:19.645Z,7.40
2018-08-20T12:48:48.659Z,6.83
2018-08-20T12:51:15.789Z,6.13
2018-08-20T12:53:43.093Z,5.80
2018-08-20T12:56:10.604Z,5.93
2018-08-20T12:58:41.214Z,6.60
2018-08-20T13:01:08.361Z,7.23
2018-08-20T13:03:35.478Z,7.27
2018-08-20T13:06:02.609Z,7.13
2018-08-20T13:08:29.713Z,7.00
2018-08-20T13:10:56.805Z,7.20
2018-08-20T13:13:23.918Z,7.30
2018-08-20T13:15:51.094Z,7.37
2018-08-20T13:18:18.189Z,7.47
2018-08-20T13:20:45.342Z,7.43
2018-08-20T13:23:12.481Z,7.33
2018-08-20T13:25:39.608Z,7.10
2018-08-20T13:28:06.725Z,7.43
2018-08-20T13:30:33.863Z,6.67
2018-08-20T13:33:00.956Z,6.17
2018-08-20T13:35:28.056Z,5.60
2018-08-20T13:37:55.180Z,5.90
2018-08-20T13:40:22.293Z,6.00
2018-08-20T13:42:49.408Z,5.37
2018-08-20T13:45:16.555Z,5.20
2018-08-20T13:47:43.672Z,5.07
2018-08-20T13:50:14.385Z,5.43
2018-08-20T13:52:43.012Z,5.10
2018-08-20T13:55:10.137Z,5.63
2018-08-20T13:57:44.883Z,5.50
2018-08-20T14:00:12.513Z,4.47
2018-08-20T14:02:39.825Z,4.93
2018-08-20T14:05:07.031Z,4.33
2018-08-20T14:07:34.173Z,5.30
2018-08-20T14:10:01.375Z,4.43
2018-08-20T14:12:28.512Z,4.70
2018-08-20T14:14:55.632Z,4.27
2018-08-20T14:17:23.076Z,4.40
2018-08-20T14:19:50.200Z,3.70
2018-08-20T14:22:17.320Z,4.23
2018-08-20T14:24:44.444Z,4.40
2018-08-20T14:27:11.561Z,3.43
2018-08-20T14:29:38.686Z,3.90
2018-08-20T14:32:05.798Z,3.13
2018-08-20T14:34:32.914Z,3.57
2018-08-20T14:37:00.097Z,4.17
2018-08-20T14:39:27.174Z,4.27
2018-08-20T14:41:54.304Z,4.30
2018-08-20T14:44:21.458Z,3.90
2018-08-20T14:46:48.589Z,4.50
2018-08-20T14:49:15.694Z,4.20
2018-08-20T14:51:42.845Z,4.17
2018-08-20T14:54:09.932Z,3.87
2018-08-20T14:56:37.089Z,4.10
2018-08-20T14:59:04.332Z,3.93
2018-08-20T15:01:31.449Z,3.73
2018-08-20T15:03:58.567Z,3.60
2018-08-20T15:06:25.712Z,3.70
2018-08-20T15:08:52.816Z,4.20
2018-08-20T15:11:19.948Z,4.20
2018-08-20T15:13:47.060Z,4.00
2018-08-20T15:16:14.193Z,3.60
2018-08-20T15:18:41.292Z,4.07
2018-08-20T15:21:08.484Z,3.60
2018-08-20T15:23:35.587Z,2.97
2018-08-20T15:26:02.730Z,3.70
2018-08-20T15:28:29.837Z,3.40
2018-08-20T15:30:56.972Z,4.03
2018-08-20T15:33:24.085Z,3.77
2018-08-20T15:35:51.168Z,3.60
2018-08-20T15:38:18.301Z,3.77
2018-08-20T15:40:45.416Z,3.70
2018-08-20T15:43:12.513Z,3.77
2018-08-20T15:45:39.656Z,3.43
2018-08-20T15:48:06.888Z,3.73
2018-08-20T15:50:33.984Z,3.43
2018-08-20T15:53:01.097Z,3.33
2018-08-20T15:55:28.188Z,3.13
2018-08-20T15:57:55.306Z,3.20
2018-08-20T16:00:22.449Z,2.80
2018-08-20T16:02:49.581Z,2.90
2018-08-20T16:05:16.753Z,2.93
2018-08-20T16:07:43.865Z,2.50
2018-08-20T16:10:11.662Z,2.67
2018-08-20T16:12:39.174Z,2.60
2018-08-20T16:15:07.353Z,2.37
2018-08-20T16:17:34.794Z,2.33
2018-08-20T16:20:01.913Z,2.70
2018-08-20T16:22:29.208Z,2.53
2018-08-20T16:24:56.349Z,2.50
2018-08-20T16:27:23.504Z,2.50
2018-08-20T16:29:50.612Z,2.33
2018-08-20T16:32:17.781Z,2.50
2018-08-20T16:34:44.890Z,2.90
2018-08-20T16:37:12.012Z,2.63
2018-08-20T16:39:39.201Z,2.60
2018-08-20T16:42:06.288Z,2.40
2018-08-20T16:44:33.413Z,2.40
2018-08-20T16:47:00.558Z,2.23
2018-08-20T16:49:27.688Z,2.53
2018-08-20T16:51:54.860Z,2.63
2018-08-20T16:54:22.100Z,2.73
2018-08-20T16:56:49.249Z,3.50
2018-08-20T16:59:16.384Z,3.00
2018-08-20T17:01:43.520Z,2.93
2018-08-20T17:04:29.196Z,3.10
2018-08-20T17:06:58.338Z,2.90
2018-08-20T17:09:25.486Z,3.20
2018-08-20T17:11:52.641Z,2.70
2018-08-20T17:14:19.749Z,2.67
2018-08-20T17:16:46.900Z,3.00
2018-08-20T17:19:14.037Z,2.97
2018-08-20T17:21:41.145Z,2.30
2018-08-20T17:24:08.313Z,2.60
2018-08-20T17:26:35.432Z,2.40
2018-08-20T17:29:07.185Z,2.40
2018-08-20T17:31:34.284Z,2.07
2018-08-20T17:34:02.242Z,2.80
2018-08-20T17:36:29.376Z,2.30
2018-08-20T17:38:56.506Z,2.60
2018-08-20T17:41:23.652Z,2.40
2018-08-20T17:43:50.773Z,2.57
2018-08-20T17:46:17.921Z,2.40
2018-08-20T17:48:45.084Z,2.60
2018-08-20T17:51:13.490Z,2.30
2018-08-20T17:53:53.404Z,2.60
2018-08-20T17:56:20.588Z,2.60
2018-08-20T17:58:53.353Z,2.70
2018-08-20T18:01:20.528Z,2.80
2018-08-20T18:03:47.612Z,2.70
2018-08-20T18:06:14.731Z,2.80
2018-08-20T18:08:41.868Z,2.50
2018-08-20T18:11:08.993Z,2.30
2018-08-20T18:13:45.448Z,3.03
2018-08-20T18:16:14.751Z,2.80
2018-08-20T18:18:43.643Z,2.70
2018-08-20T18:21:10.797Z,2.63
2018-08-20T18:23:38.146Z,2.60
2018-08-20T18:26:05.273Z,2.43
2018-08-20T18:28:34.720Z,2.80
2018-08-20T18:31:07.348Z,2.67
2018-08-20T18:33:34.480Z,2.53
2018-08-20T18:36:06.116Z,2.60
2018-08-20T18:38:37.873Z,3.30
2018-08-20T18:41:05.080Z,3.37
2018-08-20T18:43:32.259Z,3.20
2018-08-20T18:45:59.324Z,3.90
2018-08-20T18:48:32.002Z,3.70
2018-08-20T18:50:59.146Z,3.80
2018-08-20T18:53:31.106Z,3.63
2018-08-20T18:56:01.465Z,3.60
2018-08-20T18:58:30.268Z,3.53
2018-08-20T19:00:57.393Z,3.73
2018-08-20T19:03:25.404Z,4.30
2018-08-20T19:05:52.773Z,3.70
2018-08-20T19:08:23.925Z,4.10
2018-08-20T19:10:51.079Z,4.13
2018-08-20T19:13:18.241Z,3.87
2018-08-20T19:15:46.916Z,3.57
2018-08-20T19:18:24.526Z,3.90
2018-08-20T19:20:51.653Z,4.43
2018-08-20T19:23:18.805Z,4.10
2018-08-20T19:25:46.370Z,4.03
2018-08-20T19:28:17.948Z,4.30
2018-08-20T19:30:45.159Z,4.27
2018-08-20T19:33:22.101Z,4.17
2018-08-20T19:35:49.253Z,4.40
2018-08-20T19:38:16.408Z,4.43
2018-08-20T19:40:43.510Z,5.67
2018-08-20T19:43:10.644Z,5.00
2018-08-20T19:45:41.584Z,4.70
2018-08-20T19:48:08.921Z,4.07
2018-08-20T19:50:36.048Z,3.93
2018-08-20T19:53:05.159Z,3.83
2018-08-20T19:55:32.291Z,4.20
2018-08-20T19:57:59.462Z,3.60
2018-08-20T20:00:26.536Z,3.10
2018-08-20T20:02:53.645Z,3.20
2018-08-20T20:05:20.764Z,3.40
2018-08-20T20:07:54.449Z,4.00
2018-08-20T20:10:21.584Z,3.10
2018-08-20T20:12:55.096Z,3.30
2018-08-20T20:15:22.953Z,3.73
2018-08-20T20:17:50.430Z,4.10
2018-08-20T20:20:17.870Z,4.50
2018-08-20T20:22:45.008Z,4.50
2018-08-20T20:25:12.128Z,4.10
2018-08-20T20:27:39.259Z,4.50
2018-08-20T20:30:06.889Z,4.10
2018-08-20T20:32:34.812Z,3.83
2018-08-20T20:35:01.950Z,5.43
2018-08-20T20:37:29.090Z,4.77
2018-08-20T20:39:58.101Z,4.87
2018-08-20T20:42:25.269Z,4.97
2018-08-20T20:44:52.456Z,5.60
2018-08-20T20:47:19.593Z,5.97
2018-08-20T20:49:46.712Z,6.13
2018-08-20T20:52:13.856Z,5.87
2018-08-20T20:54:40.977Z,6.67
2018-08-20T20:57:08.124Z,6.33
2018-08-20T20:59:35.276Z,6.90
2018-08-20T21:02:02.397Z,6.57
2018-08-20T21:04:29.521Z,6.07
2018-08-20T21:06:56.668Z,6.17
2018-08-20T21:09:23.824Z,6.70
2018-08-20T21:11:50.940Z,6.30
2018-08-20T21:14:18.068Z,5.87
2018-08-20T21:16:45.185Z,6.40
2018-08-20T21:19:12.288Z,7.60
2018-08-20T21:21:39.405Z,7.00
2018-08-20T21:24:07.093Z,7.27
2018-08-20T21:26:34.221Z,7.17
2018-08-20T21:29:01.319Z,7.00
2018-08-20T21:31:29.933Z,7.77
2018-08-20T21:33:59.139Z,8.00
2018-08-20T21:36:26.265Z,6.80
2018-08-20T21:38:53.436Z,7.57
2018-08-20T21:41:28.283Z,7.60
2018-08-20T21:43:55.413Z,8.30
2018-08-20T21:46:22.569Z,9.23
2018-08-20T21:48:49.708Z,8.20
2018-08-20T21:51:18.832Z,8.20
2018-08-20T21:53:45.936Z,8.33
2018-08-20T21:56:13.177Z,7.87
2018-08-20T21:58:41.475Z,8.20
2018-08-20T22:01:10.278Z,7.00
2018-08-20T22:03:37.475Z,7.50
2018-08-20T22:06:04.621Z,7.77
2018-08-20T22:08:31.757Z,6.90
2018-08-20T22:10:58.885Z,7.97
2018-08-20T22:13:25.989Z,8.00
2018-08-20T22:16:11.144Z,8.10
2018-08-20T22:18:39.540Z,7.87
2018-08-20T22:21:10.116Z,8.70
2018-08-20T22:23:39.285Z,8.30
2018-08-20T22:26:07.580Z,8.27
2018-08-20T22:28:34.692Z,8.57
2018-08-20T22:31:01.836Z,8.50
2018-08-20T22:33:28.979Z,8.27
2018-08-20T22:35:56.155Z,8.10
2018-08-20T22:38:23.206Z,7.90
2018-08-20T22:40:50.309Z,7.63
2018-08-20T22:43:17.416Z,7.47
2018-08-20T22:45:44.517Z,7.90
2018-08-20T22:48:11.646Z,7.17
2018-08-20T22:50:38.763Z,7.23
2018-08-20T22:53:05.883Z,7.00
2018-08-20T22:55:33.008Z,7.07
2018-08-20T22:58:05.952Z,7.87
2018-08-20T23:00:33.116Z,8.00
2018-08-20T23:03:00.243Z,7.30
2018-08-20T23:05:29.756Z,7.27
2018-08-20T23:08:00.451Z,6.50
2018-08-20T23:10:27.685Z,6.87
2018-08-20T23:12:54.817Z,6.33
2018-08-20T23:15:21.949Z,7.27
2018-08-20T23:17:49.120Z,7.03
2018-08-20T23:20:21.755Z,6.77
2018-08-20T23:22:48.848Z,7.33
2018-08-20T23:25:15.984Z,6.83
2018-08-20T23:27:43.128Z,7.23
2018-08-20T23:30:14.463Z,7.00
2018-08-20T23:32:41.693Z,7.70
2018-08-20T23:35:08.788Z,6.83
2018-08-20T23:37:36.036Z,7.30
2018-08-20T23:40:04.064Z,7.20
2018-08-20T23:42:31.185Z,7.87
2018-08-20T23:44:58.316Z,7.20
2018-08-20T23:47:25.444Z,7.43
2018-08-20T23:49:52.589Z,7.73
2018-08-20T23:52:19.719Z,6.70
2018-08-20T23:54:46.819Z,8.00
2018-08-20T23:57:13.918Z,8.20
2018-08-20T23:59:41.030Z,8.03
